Time;durP1;ratioP1;P1;durP2;ratioP2;P2;SDS_P1;SDS_P2;PMS_P1;PMS_P2;Temp;Humidity;BMP_temperature;BMP_pressure;BME280_temperature;BME280_humidity;BME280_pressure;Samples;Min_cycle;Max_cycle;Signal;HPM_P1;HPM_P2
2021/12/14 00:01:44;;;;;;;40.03;15.30;;;5.70;87.80;;;3.82;100.00;97087.47;4986209;28;20050;-68
2021/12/14 00:04:13;;;;;;;40.38;16.25;;;5.70;88.10;;;3.81;100.00;97083.22;4946525;28;20142;-67
2021/12/14 00:06:40;;;;;;;39.15;16.40;;;5.80;88.10;;;3.83;100.00;97081.31;4986106;28;20379;-67
2021/12/14 00:09:08;;;;;;;41.53;16.67;;;5.80;88.00;;;3.84;100.00;97083.78;4988490;28;20041;-67
2021/12/14 00:16:52;;;;;;;45.13;17.45;;;5.80;88.10;;;3.85;100.00;97069.84;4990810;23;20379;-66
2021/12/14 00:19:18;;;;;;;50.03;16.63;;;5.80;88.20;;;3.86;100.00;97071.50;4995214;28;20045;-67
2021/12/14 00:21:49;;;;;;;52.30;17.35;;;5.90;88.10;;;3.86;100.00;97073.28;4997554;28;20038;-67
2021/12/14 00:24:15;;;;;;;70.35;17.38;;;5.80;88.30;;;3.85;100.00;97087.25;4977453;28;20389;-67
2021/12/14 00:26:49;;;;;;;76.85;19.85;;;5.70;88.20;;;3.82;100.00;97079.66;5008765;28;20455;-67
2021/12/14 00:29:21;;;;;;;70.13;19.38;;;5.70;88.50;;;3.82;100.00;97083.09;4969195;28;20093;-67
2021/12/14 00:31:48;;;;;;;168.93;20.17;;;5.70;88.30;;;3.80;100.00;97081.56;4967623;28;20517;-66
2021/12/14 00:34:22;;;;;;;151.60;18.77;;;5.70;88.50;;;3.77;100.00;97081.81;5001782;28;20027;-67
2021/12/14 00:36:47;;;;;;;229.60;19.02;;;5.60;88.60;;;3.74;100.00;97076.84;4975631;28;20076;-65
2021/12/14 00:39:13;;;;;;;133.48;20.73;;;5.60;88.70;;;3.73;100.00;97081.22;4982277;28;20058;-65
2021/12/14 00:41:39;;;;;;;55.22;20.63;;;5.60;88.90;;;3.74;100.00;97077.69;4989404;28;20042;-65
2021/12/14 00:44:05;;;;;;;81.28;20.85;;;5.70;88.90;;;3.74;100.00;97071.66;4981329;28;20087;-65
2021/12/14 00:46:33;;;;;;;72.13;20.13;;;5.80;88.80;;;3.77;100.00;97077.44;4958026;28;20572;-65
2021/12/14 00:48:59;;;;;;;63.40;19.90;;;5.80;88.60;;;3.79;100.00;97074.72;4973898;28;20065;-65
2021/12/14 00:51:28;;;;;;;145.90;22.90;;;5.90;88.50;;;3.82;100.00;97071.84;4973086;28;20489;-66
2021/12/14 00:53:55;;;;;;;53.45;20.73;;;5.80;88.40;;;3.83;100.00;97065.69;4977153;28;20442;-65
2021/12/14 00:56:21;;;;;;;101.93;20.27;;;5.90;88.40;;;3.84;100.00;97062.16;4960527;28;20046;-66
2021/12/14 00:58:47;;;;;;;56.28;19.45;;;5.90;88.40;;;3.86;100.00;97055.06;4953674;28;20062;-66
2021/12/14 01:01:27;;;;;;;55.42;20.75;;;5.90;88.40;;;3.87;100.00;97062.75;4991615;28;20066;-66
2021/12/14 01:03:57;;;;;;;73.43;20.77;;;6.00;88.30;;;3.91;100.00;97058.13;4992734;28;20037;-66
2021/12/14 01:06:30;;;;;;;61.58;21.95;;;6.00;88.10;;;3.93;100.00;97061.41;4987126;28;20571;-66
2021/12/14 01:08:55;;;;;;;79.25;21.13;;;6.10;87.80;;;3.93;100.00;97061.41;4968774;28;20065;-67
2021/12/14 01:11:40;;;;;;;67.75;20.58;;;6.00;87.80;;;3.97;100.00;97062.81;4951093;28;20030;-66
2021/12/14 01:14:27;;;;;;;95.97;23.52;;;6.10;87.70;;;3.96;100.00;97066.38;4985520;28;20409;-65
2021/12/14 01:17:41;;;;;;;123.65;21.92;;;6.00;87.60;;;3.94;100.00;97068.28;4985121;28;20038;-66
2021/12/14 01:19:58;;;;;;;64.20;22.00;;;6.00;87.40;;;3.91;100.00;97079.78;4970091;28;20574;-66
2021/12/14 01:25:20;;;;;;;143.20;20.83;;;5.80;87.40;;;3.84;100.00;97082.97;4997353;28;20435;-66
2021/12/14 01:27:59;;;;;;;152.32;21.25;;;5.70;87.60;;;3.80;100.00;97097.19;4966074;28;20084;-66
2021/12/14 01:30:49;;;;;;;69.28;21.80;;;5.70;87.70;;;3.78;100.00;97086.06;4986438;28;20041;-66
2021/12/14 01:33:16;;;;;;;63.63;21.23;;;5.70;87.90;;;3.77;100.00;97084.41;4991732;28;20053;-66
2021/12/14 01:35:44;;;;;;;162.43;22.13;;;5.80;87.70;;;3.76;100.00;97103.59;4969044;28;20042;-66
2021/12/14 01:38:32;;;;;;;97.13;21.67;;;5.70;87.40;;;3.74;100.00;97100.28;4970375;28;20223;-66
2021/12/14 01:41:07;;;;;;;229.52;23.05;;;5.70;87.60;;;3.69;100.00;97098.88;4984065;28;20039;-66
2021/12/14 01:43:48;;;;;;;86.10;19.80;;;5.60;87.40;;;3.69;100.00;97095.44;4996360;28;20402;-66
2021/12/14 01:46:29;;;;;;;95.03;21.15;;;5.70;87.60;;;3.68;100.00;97101.59;4987732;28;20065;-66
2021/12/14 01:48:55;;;;;;;84.55;21.30;;;5.60;87.60;;;3.62;100.00;97100.31;4968516;28;20582;-66
2021/12/14 01:51:21;;;;;;;94.43;23.08;;;5.50;87.70;;;3.59;100.00;97089.28;4970934;28;20030;-66
2021/12/14 01:53:49;;;;;;;126.15;22.50;;;5.50;87.90;;;3.57;100.00;97099.81;4943315;28;20041;-66
2021/12/14 01:56:17;;;;;;;67.32;21.48;;;5.50;87.80;;;3.58;100.00;97098.88;4985708;28;20030;-66
2021/12/14 01:58:47;;;;;;;61.08;22.20;;;5.50;87.80;;;3.54;100.00;97084.47;4984924;28;20046;-66
2021/12/14 02:01:19;;;;;;;55.20;23.10;;;5.50;87.80;;;3.51;100.00;97092.50;4977588;28;20425;-65
2021/12/14 02:03:55;;;;;;;72.82;22.48;;;5.50;87.90;;;3.51;100.00;97095.13;4980769;28;20045;-65
2021/12/14 02:06:25;;;;;;;116.03;22.73;;;5.50;87.70;;;3.50;100.00;97103.03;4966590;28;20484;-66
2021/12/14 02:09:19;;;;;;;115.57;23.30;;;5.40;87.50;;;3.43;100.00;97100.09;4967903;28;20134;-66
2021/12/14 02:11:50;;;;;;;66.70;22.67;;;5.30;88.00;;;3.41;100.00;97103.78;4968196;28;20041;-66
2021/12/14 02:14:16;;;;;;;;;;;5.20;88.00;;;3.36;100.00;97098.91;4984660;28;20518;-66
2021/12/14 02:16:42;;;;;;;89.22;21.35;;;5.20;87.70;;;3.33;100.00;97096.56;4984273;28;20264;-66
2021/12/14 02:19:15;;;;;;;52.65;21.85;;;5.20;87.70;;;3.30;100.00;97099.41;4971320;28;20069;-65
2021/12/14 02:21:46;;;;;;;66.85;23.48;;;5.30;87.80;;;3.30;100.00;97094.19;4968459;28;20103;-66
2021/12/14 02:24:12;;;;;;;136.43;24.42;;;5.30;87.80;;;3.30;100.00;97094.19;5006006;28;20026;-66
2021/12/14 02:26:42;;;;;;;67.10;24.65;;;5.30;87.70;;;3.32;100.00;97092.28;4983540;28;20142;-66
2021/12/14 02:29:10;;;;;;;52.72;23.25;;;5.40;87.70;;;3.33;100.00;97094.78;4985489;28;20427;-66
2021/12/14 02:31:39;;;;;;;98.55;22.98;;;5.40;87.50;;;3.35;100.00;97086.84;4970880;28;20510;-66
2021/12/14 02:34:06;;;;;;;87.65;22.25;;;5.40;87.40;;;3.36;100.00;97083.31;4984346;28;20093;-66
2021/12/14 02:36:40;;;;;;;111.13;25.08;;;5.40;87.40;;;3.35;100.00;97082.47;4979928;28;20553;-66
2021/12/14 02:39:12;;;;;;;178.20;22.17;;;5.30;87.40;;;3.32;100.00;97082.72;4963918;28;20041;-65
2021/12/14 02:41:50;;;;;;;115.35;19.08;;;5.20;87.20;;;3.23;100.00;97087.81;4974923;28;20395;-66
2021/12/14 02:44:16;;;;;;;78.38;18.92;;;5.00;87.50;;;3.15;100.00;97079.78;4986500;28;20532;-66
2021/12/14 02:46:48;;;;;;;143.75;19.45;;;4.90;88.10;;;3.08;100.00;97080.25;4987580;28;20035;-65
2021/12/14 02:49:20;;;;;;;97.43;16.25;;;4.90;88.40;;;3.02;100.00;97091.13;4975140;28;20035;-66
2021/12/14 02:51:53;;;;;;;54.95;14.20;;;4.80;88.40;;;2.96;100.00;97091.63;4970969;28;20042;-65
2021/12/14 02:54:33;;;;;;;100.95;13.02;;;4.70;88.30;;;2.89;100.00;97090.41;4971426;28;20434;-66
2021/12/14 02:57:13;;;;;;;70.72;12.80;;;4.60;88.20;;;2.86;100.00;97085.44;4970678;28;20043;-66
2021/12/14 02:59:41;;;;;;;59.60;11.07;;;4.70;88.10;;;2.80;100.00;97075.53;4976308;28;20494;-66
2021/12/14 03:02:10;;;;;;;48.42;11.50;;;4.60;87.80;;;2.70;100.00;97079.75;4972441;28;20137;-65
2021/12/14 03:04:42;;;;;;;56.28;10.85;;;4.40;87.90;;;2.61;100.00;97076.09;4988327;28;20524;-66
2021/12/14 03:07:08;;;;;;;62.78;9.57;;;4.30;88.00;;;2.52;100.00;97079.41;4986385;28;20463;-66
2021/12/14 03:09:59;;;;;;;65.43;9.45;;;4.10;87.90;;;2.42;100.00;97071.44;4950546;28;20364;-66
2021/12/14 03:12:35;;;;;;;;;;;4.10;88.30;;;2.34;100.00;97083.34;4999146;28;20162;-65
2021/12/14 03:15:15;;;;;;;63.83;9.82;;;4.10;88.70;;;2.28;100.00;97081.22;4993342;28;20016;-66
2021/12/14 03:17:43;;;;;;;48.55;9.45;;;4.00;88.80;;;2.20;100.00;97081.75;5005396;28;20042;-65
2021/12/14 03:20:16;;;;;;;33.47;9.27;;;3.90;88.80;;;2.21;100.00;97083.41;4957732;28;20058;-65
2021/12/14 03:23:05;;;;;;;55.03;8.35;;;4.10;88.50;;;2.20;100.00;97079.16;4985653;28;20228;-66
2021/12/14 03:25:38;;;;;;;40.28;8.65;;;4.00;88.20;;;2.13;100.00;97086.59;4986183;28;20070;-66
2021/12/14 03:28:06;;;;;;;64.03;8.40;;;3.90;88.50;;;2.07;100.00;97081.84;4989906;28;20038;-65
2021/12/14 03:30:42;;;;;;;26.08;9.00;;;3.90;88.10;;;2.04;100.00;97097.66;4981814;28;20418;-66
2021/12/14 03:33:17;;;;;;;98.78;8.52;;;3.90;88.50;;;2.03;100.00;97079.56;4996359;28;20041;-65
2021/12/14 03:36:02;;;;;;;58.97;9.02;;;3.90;87.80;;;1.98;100.00;97092.06;4973774;28;20034;-65
2021/12/14 03:39:10;;;;;;;48.65;8.60;;;3.70;88.00;;;1.93;100.00;97091.56;4968254;28;20033;-65
2021/12/14 03:41:46;;;;;;;70.35;8.95;;;3.70;88.20;;;1.89;100.00;97093.56;4966313;28;20073;-65
2021/12/14 03:44:29;;;;;;;27.42;8.20;;;3.60;88.10;;;1.84;100.00;97093.91;4983938;28;20054;-66
2021/12/14 03:46:59;;;;;;;36.67;8.27;;;3.60;88.50;;;1.80;100.00;97095.03;4992456;28;20030;-65
2021/12/14 03:49:32;;;;;;;66.13;8.87;;;3.60;88.30;;;1.76;100.00;97093.63;4994277;28;20495;-66
2021/12/14 03:51:58;;;;;;;32.55;16.25;;;3.60;88.30;;;1.77;100.00;97087.47;4956764;28;20281;-65
2021/12/14 03:54:24;;;;;;;60.78;9.50;;;3.70;88.80;;;1.75;100.00;97094.56;4973757;28;20133;-65
2021/12/14 03:56:50;;;;;;;62.97;8.60;;;3.60;88.30;;;1.69;100.00;97087.22;4973904;28;20066;-65
2021/12/14 03:59:16;;;;;;;43.85;8.77;;;3.50;88.40;;;1.65;100.00;97090.97;4975014;28;20042;-65
2021/12/14 04:01:44;;;;;;;44.30;8.95;;;3.50;88.30;;;1.63;100.00;97079.88;4983479;28;20441;-65
2021/12/14 04:04:25;;;;;;;39.67;8.80;;;3.50;88.40;;;1.64;100.00;97084.13;4975526;28;20042;-65
2021/12/14 04:06:54;;;;;;;28.75;8.68;;;3.50;88.10;;;1.62;100.00;97080.81;4970397;28;20035;-65
2021/12/14 04:09:22;;;;;;;46.95;9.27;;;3.50;88.60;;;1.59;100.00;97075.84;4992191;28;20098;-65
2021/12/14 04:11:48;;;;;;;58.97;8.45;;;3.40;88.60;;;1.54;100.00;97073.56;4989293;28;20027;-65
2021/12/14 04:14:14;;;;;;;46.25;8.70;;;3.40;88.80;;;1.53;100.00;97078.88;4979629;28;20391;-65
2021/12/14 04:16:43;;;;;;;23.48;8.88;;;3.40;89.00;;;1.56;100.00;97096.78;4986845;28;20045;-65
2021/12/14 04:19:11;;;;;;;62.90;8.75;;;3.50;89.10;;;1.54;100.00;97080.53;4973687;28;20557;-66
2021/12/14 04:21:41;;;;;;;31.35;10.77;;;3.40;88.20;;;1.50;100.00;97081.69;4988013;28;20310;-65
2021/12/14 04:24:07;;;;;;;67.85;8.70;;;3.40;88.50;;;1.48;100.00;97083.56;4977934;28;20061;-65
2021/12/14 04:26:33;;;;;;;92.22;8.48;;;3.40;88.40;;;1.46;100.00;97088.84;4956511;28;20043;-65
2021/12/14 04:29:00;;;;;;;143.75;9.07;;;3.20;88.30;;;1.40;100.00;97080.69;4979117;28;20038;-67
2021/12/14 04:31:26;;;;;;;46.15;7.22;;;3.10;88.30;;;1.37;100.00;97078.31;4999942;28;20038;-67
2021/12/14 04:33:52;;;;;;;83.00;5.97;;;3.10;88.10;;;1.32;100.00;97077.78;4954005;28;20097;-65
2021/12/14 04:36:24;;;;;;;49.53;6.68;;;3.00;87.50;;;1.23;100.00;97067.13;4980617;28;20034;-69
2021/12/14 04:38:56;;;;;;;61.55;6.10;;;3.00;88.10;;;1.20;100.00;97059.59;4979221;28;20488;-65
2021/12/14 04:52:24;;;;;;;33.80;6.32;;;2.70;88.50;;;0.95;100.00;97061.41;4994625;28;20045;-65
2021/12/14 04:55:06;;;;;;;66.63;6.93;;;2.80;88.60;;;0.93;100.00;97055.50;4971459;28;20050;-66
2021/12/14 04:57:44;;;;;;;85.10;7.72;;;2.70;88.70;;;0.93;100.00;97056.34;4958505;28;20486;-66
2021/12/14 05:00:27;;;;;;;39.30;6.80;;;2.80;88.70;;;0.97;100.00;97052.59;4988715;28;20034;-66
2021/12/14 05:02:56;;;;;;;47.72;8.02;;;2.90;88.70;;;0.97;100.00;97057.78;4988229;28;20057;-66
2021/12/14 05:05:31;;;;;;;27.15;7.68;;;2.90;88.70;;;1.01;100.00;97060.97;4941428;28;20188;-66
2021/12/14 05:10:41;;;;;;;38.58;7.60;;;3.10;88.40;;;1.09;100.00;97059.50;4974210;28;20046;-66
2021/12/14 05:13:07;;;;;;;63.05;7.68;;;3.10;88.60;;;1.07;100.00;97069.13;4973062;28;20474;-66
2021/12/14 05:15:37;;;;;;;125.32;7.60;;;3.00;88.40;;;1.06;100.00;97072.66;4955496;28;20042;-66
2021/12/14 05:18:10;;;;;;;106.30;7.70;;;3.00;88.30;;;1.01;100.00;97079.94;4988151;28;20077;-66
2021/12/14 05:20:35;;;;;;;34.75;8.15;;;2.90;88.70;;;1.01;100.00;97079.94;4986237;28;20031;-66
2021/12/14 05:23:03;;;;;;;210.68;10.10;;;2.90;89.10;;;0.98;100.00;97074.13;4956046;28;20069;-66
2021/12/14 05:25:29;;;;;;;139.75;8.57;;;2.80;88.90;;;0.96;100.00;97071.66;4972123;28;20308;-67
2021/12/14 05:27:57;;;;;;;120.28;7.72;;;2.80;89.10;;;0.94;100.00;97052.81;4989830;28;20516;-65
2021/12/14 05:30:33;;;;;;;84.22;7.50;;;2.70;89.10;;;0.91;100.00;97060.78;4971388;28;20198;-66
2021/12/14 05:33:04;;;;;;;51.00;5.03;;;2.70;89.40;;;0.91;100.00;97055.59;4990220;28;20119;-66
2021/12/14 05:35:30;;;;;;;81.38;8.32;;;2.80;89.10;;;0.90;100.00;97056.50;4991646;28;20041;-67
2021/12/14 05:37:57;;;;;;;64.97;7.40;;;2.70;89.20;;;0.87;100.00;97056.72;4987992;28;20549;-66
2021/12/14 05:43:16;;;;;;;74.40;36.28;;;2.70;89.20;;;0.91;100.00;97063.38;4975709;28;20038;-66
2021/12/14 05:45:47;;;;;;;59.88;11.77;;;2.90;89.70;;;0.95;100.00;97067.41;4952825;28;20030;-67
2021/12/14 05:48:25;;;;;;;63.95;24.27;;;2.90;88.90;;;0.98;100.00;97064.59;4993132;28;20064;-67
2021/12/14 05:51:00;;;;;;;84.45;10.65;;;3.00;89.30;;;1.03;100.00;97067.69;4976657;28;20038;-68
2021/12/14 05:53:35;;;;;;;47.17;11.68;;;3.10;88.90;;;1.04;100.00;97059.00;4990326;28;20103;-68
2021/12/14 05:56:05;;;;;;;99.30;9.25;;;3.10;89.10;;;1.02;100.00;97055.69;4987599;28;20035;-69
2021/12/14 05:58:31;;;;;;;67.70;9.63;;;3.00;88.80;;;1.03;100.00;97056.50;4994281;28;20041;-69
2021/12/14 06:01:01;;;;;;;30.70;14.60;;;3.00;89.00;;;1.03;100.00;97070.28;4976119;28;20038;-68
2021/12/14 06:03:30;;;;;;;31.60;12.27;;;3.00;89.30;;;1.06;100.00;97059.72;4987168;28;20073;-68
2021/12/14 06:05:57;;;;;;;46.35;13.85;;;3.10;89.10;;;1.12;100.00;97059.28;4954774;28;20044;-66
2021/12/14 06:08:31;;;;;;;31.13;9.98;;;3.20;88.70;;;1.16;100.00;97055.56;4986939;28;20121;-65
2021/12/14 06:10:57;;;;;;;63.88;14.50;;;3.20;88.70;;;1.21;100.00;97045.69;4955298;28;20037;-68
2021/12/14 06:13:40;;;;;;;47.90;15.88;;;3.30;88.40;;;1.25;100.00;97040.28;4987328;28;20045;-64
2021/12/14 06:16:08;;;;;;;37.08;10.85;;;3.30;88.40;;;1.27;100.00;97041.00;5005062;28;20085;-66
2021/12/14 06:18:33;;;;;;;36.00;8.73;;;3.30;88.40;;;1.30;100.00;97038.19;4953529;23;20051;-66
2021/12/14 06:20:59;;;;;;;27.98;9.45;;;3.30;88.20;;;1.30;100.00;97033.00;4973212;28;20059;-65
2021/12/14 06:23:26;;;;;;;25.45;9.05;;;3.30;88.10;;;1.32;100.00;97036.31;4971810;28;20526;-65
2021/12/14 06:25:52;;;;;;;53.30;8.80;;;3.40;87.70;;;1.33;100.00;97027.59;4963659;28;20732;-67
2021/12/14 06:28:26;;;;;;;35.97;9.18;;;3.30;87.50;;;1.34;100.00;97018.88;4930481;28;20419;-66
2021/12/14 06:30:52;;;;;;;40.33;9.00;;;3.30;87.50;;;1.32;100.00;97024.19;4976860;28;20039;-65
2021/12/14 06:33:18;;;;;;;29.63;9.43;;;3.40;87.50;;;1.35;100.00;97030.91;4975706;28;20518;-67
2021/12/14 06:35:47;;;;;;;25.23;12.50;;;3.40;87.40;;;1.31;100.00;97019.13;4935395;28;20035;-66
2021/12/14 06:38:26;;;;;;;45.30;12.95;;;3.40;87.00;;;1.33;100.00;97033.63;4983238;28;20070;-66
2021/12/14 06:40:57;;;;;;;33.50;10.38;;;3.30;86.80;;;1.32;100.00;97025.94;4983545;28;20035;-66
2021/12/14 06:43:31;;;;;;;93.07;9.40;;;3.30;87.00;;;1.29;100.00;97016.63;4983342;28;20035;-67
2021/12/14 06:46:01;;;;;;;83.95;10.50;;;3.20;87.00;;;1.27;100.00;97017.69;4967701;28;20027;-67
2021/12/14 06:48:44;;;;;;;31.45;11.10;;;3.10;86.90;;;1.21;100.00;97014.59;4983724;28;20295;-68
2021/12/14 06:51:15;;;;;;;121.50;11.63;;;3.20;87.50;;;1.22;100.00;97024.03;4967776;28;20034;-67
2021/12/14 06:53:41;;;;;;;81.15;11.48;;;3.20;87.20;;;1.21;100.00;97024.97;4967371;28;20058;-66
2021/12/14 06:56:09;;;;;;;44.08;11.23;;;3.10;87.40;;;1.22;100.00;97015.41;4983981;28;20506;-66
2021/12/14 06:58:44;;;;;;;57.85;11.02;;;3.30;87.50;;;1.23;100.00;97017.91;4936199;28;20575;-66
2021/12/14 07:01:17;;;;;;;70.53;12.63;;;3.30;87.50;;;1.22;100.00;97008.47;4942179;28;20035;-68
2021/12/14 07:03:49;;;;;;;44.67;11.55;;;3.30;87.30;;;1.25;100.00;97012.59;4968982;28;20117;-66
2021/12/14 07:06:34;;;;;;;32.72;12.48;;;3.30;87.40;;;1.28;100.00;97021.94;4955370;28;20042;-67
2021/12/14 07:09:21;;;;;;;74.35;12.02;;;3.40;87.30;;;1.30;100.00;97018.28;4937067;28;20511;-68
2021/12/14 07:11:59;;;;;;;48.58;11.30;;;3.40;86.70;;;1.32;100.00;97020.75;4940216;28;20034;-68
2021/12/14 07:14:29;;;;;;;54.08;12.13;;;3.40;86.80;;;1.30;100.00;97023.47;4985610;28;20042;-67
2021/12/14 07:16:57;;;;;;;28.42;11.93;;;3.40;86.80;;;1.32;100.00;97020.75;4972591;28;20031;-67
2021/12/14 07:20:00;;;;;;;65.50;13.02;;;3.50;86.90;;;1.37;100.00;97029.06;4963470;28;20088;-67
2021/12/14 07:22:28;;;;;;;47.88;12.90;;;3.50;86.70;;;1.38;100.00;97030.72;4935882;28;20038;-68
2021/12/14 07:24:59;;;;;;;48.08;16.67;;;3.60;86.60;;;1.43;100.00;97028.63;4965550;28;20088;-68
2021/12/14 07:27:30;;;;;;;61.00;15.35;;;3.60;87.20;;;1.43;100.00;97033.81;4950728;28;20041;-68
2021/12/14 07:30:30;;;;;;;34.15;14.73;;;3.60;87.00;;;1.47;100.00;97045.59;4954032;28;20054;-68
2021/12/14 07:33:37;;;;;;;46.15;16.33;;;3.60;86.90;;;1.49;100.00;97044.56;4979848;28;20111;-67
2021/12/14 07:36:11;;;;;;;70.85;12.70;;;3.60;86.70;;;1.52;100.00;97056.47;4961484;28;20502;-67
2021/12/14 07:38:47;;;;;;;38.17;10.05;;;3.70;86.60;;;1.51;100.00;97058.22;4955907;28;20093;-68
2021/12/14 07:41:31;;;;;;;28.98;9.98;;;3.60;86.50;;;1.54;100.00;97054.59;4958252;28;20031;-67
2021/12/14 07:44:17;;;;;;;36.13;9.55;;;3.70;86.40;;;1.55;100.00;97064.03;4983392;28;20035;-67
2021/12/14 07:46:45;;;;;;;30.58;8.95;;;3.70;86.00;;;1.58;100.00;97071.56;4986226;28;20035;-67
2021/12/14 07:49:36;;;;;;;64.90;8.52;;;3.70;85.60;;;1.57;100.00;97069.94;4985930;28;20090;-67
2021/12/14 07:52:08;;;;;;;25.98;8.70;;;3.60;85.40;;;1.53;100.00;97068.50;4951170;28;20035;-67
2021/12/14 07:54:49;;;;;;;25.75;8.07;;;3.50;85.40;;;1.52;100.00;97070.25;4981071;28;20122;-68
2021/12/14 07:57:18;;;;;;;17.35;8.05;;;3.50;85.60;;;1.51;100.00;97072.97;4966603;28;20101;-70
2021/12/14 07:59:49;;;;;;;25.00;8.05;;;3.50;85.40;;;1.49;100.00;97067.06;4985785;28;20035;-66
2021/12/14 08:02:24;;;;;;;23.90;7.80;;;3.60;85.20;;;1.53;100.00;97055.53;4984918;28;20053;-69
2021/12/14 08:05:03;;;;;;;39.60;8.43;;;3.60;85.10;;;1.46;100.00;97054.31;4965174;28;20051;-67
2021/12/14 08:07:40;;;;;;;13.50;7.50;;;3.40;84.70;;;1.41;100.00;97049.47;4965835;28;20039;-69
2021/12/14 08:10:28;;;;;;;12.88;7.35;;;3.50;85.20;;;1.40;100.00;97049.59;4961521;28;20722;-67
2021/12/14 08:12:58;;;;;;;19.30;7.00;;;3.50;84.60;;;1.31;100.00;97035.50;4969094;28;20038;-66
2021/12/14 08:15:24;;;;;;;12.95;6.55;;;3.20;84.50;;;1.29;100.00;97032.19;4983497;28;20410;-69
2021/12/14 08:18:11;;;;;;;17.35;7.75;;;3.20;84.50;;;1.23;100.00;97043.00;4969028;28;20034;-68
2021/12/14 08:20:42;;;;;;;9.50;6.93;;;3.20;84.90;;;1.28;100.00;97051.25;4967015;28;20110;-70
2021/12/14 08:23:31;;;;;;;;;;;3.50;85.20;;;1.31;100.00;97039.84;4967558;28;20042;-68
2021/12/14 08:26:10;;;;;;;9.70;6.85;;;3.40;85.20;;;1.25;100.00;97040.28;4959711;28;19918;-70
2021/12/14 08:29:19;;;;;;;9.10;6.53;;;3.30;85.00;;;1.26;100.00;97047.94;4949565;28;20101;-69
2021/12/14 08:31:47;;;;;;;7.53;5.47;;;3.30;85.00;;;1.25;100.00;97048.06;4952594;28;20118;-68
2021/12/14 08:34:25;;;;;;;12.45;9.18;;;3.30;84.80;;;1.27;100.00;97041.84;4968717;28;20043;-69
2021/12/14 08:37:04;;;;;;;13.60;7.20;;;3.40;84.90;;;1.27;100.00;97036.66;4969341;28;20038;-68
2021/12/14 08:39:38;;;;;;;11.55;8.02;;;3.40;84.80;;;1.28;100.00;97032.28;4984407;28;20062;-69
2021/12/14 08:42:13;;;;;;;15.18;7.50;;;3.40;85.20;;;1.31;100.00;97022.53;4969306;28;20038;-70
2021/12/14 08:44:50;;;;;;;11.68;7.38;;;3.50;84.70;;;1.31;100.00;97019.94;4949970;28;20123;-66
2021/12/14 08:47:24;;;;;;;11.15;7.53;;;3.40;84.80;;;1.32;100.00;97015.59;4968612;28;20049;-70
2021/12/14 08:49:50;;;;;;;12.13;7.70;;;3.40;85.10;;;1.32;100.00;97005.22;4962939;28;20164;-70
2021/12/14 08:52:16;;;;;;;11.75;7.95;;;3.40;85.20;;;1.39;100.00;97016.81;4935282;28;20083;-69
2021/12/14 08:54:42;;;;;;;12.02;8.23;;;3.60;85.30;;;1.47;100.00;97010.13;4933225;28;20046;-66
2021/12/14 08:57:15;;;;;;;14.52;8.23;;;3.80;85.20;;;1.60;100.00;97014.44;4951594;28;20117;-69
2021/12/14 08:59:43;;;;;;;12.07;8.18;;;3.90;84.70;;;1.69;100.00;97013.78;4937703;28;20045;-71
2021/12/14 09:02:11;;;;;;;15.30;9.32;;;4.10;84.80;;;1.76;100.00;97020.97;4968279;28;20042;-68
2021/12/14 09:04:59;;;;;;;20.65;9.15;;;4.00;84.70;;;1.77;100.00;97012.25;4968619;28;20559;-67
2021/12/14 09:07:28;;;;;;;14.55;10.13;;;4.10;84.60;;;1.87;100.00;97016.78;4968883;28;20129;-70
2021/12/14 09:09:55;;;;;;;10.52;7.57;;;4.20;84.70;;;1.94;100.00;97008.44;4936873;28;20060;-67
2021/12/14 09:12:35;;;;;;;10.00;7.72;;;4.20;84.20;;;2.01;100.00;97012.22;4964855;28;20041;-67
2021/12/14 09:15:08;;;;;;;9.40;7.45;;;4.30;83.90;;;2.09;100.00;97035.03;4983437;28;20053;-65
2021/12/14 09:17:34;;;;;;;10.02;7.00;;;4.60;83.80;;;2.20;100.00;97036.81;4983832;28;20163;-67
2021/12/14 09:20:14;;;;;;;9.07;6.57;;;4.70;83.00;;;2.29;100.00;97039.56;4968679;28;20126;-72
2021/12/14 09:22:51;;;;;;;6.10;4.68;;;4.90;82.70;;;2.39;100.00;97030.13;4969727;28;20027;-70
2021/12/14 09:25:23;;;;;;;8.00;5.95;;;5.00;82.00;;;2.51;100.00;97028.41;4981317;28;20100;-68
2021/12/14 09:27:50;;;;;;;6.95;5.50;;;5.10;81.50;;;2.63;100.00;97026.63;4967825;28;20050;-69
2021/12/14 09:30:17;;;;;;;7.22;6.07;;;5.30;81.30;;;2.76;100.00;97035.16;4951433;28;20499;-68
2021/12/14 09:32:43;;;;;;;8.02;6.22;;;5.40;80.90;;;2.86;100.00;97028.28;4981409;28;20482;-69
2021/12/14 09:35:16;;;;;;;9.15;6.88;;;5.50;81.00;;;2.95;100.00;97032.78;4964999;28;20108;-69
2021/12/14 09:37:41;;;;;;;9.05;6.93;;;5.70;80.40;;;3.10;100.00;97033.34;4966897;28;20380;-70
2021/12/14 09:40:20;;;;;;;10.30;6.53;;;5.80;80.30;;;3.20;99.64;97030.88;4982945;28;20045;-70
2021/12/14 09:42:46;;;;;;;7.63;6.75;;;5.70;79.70;;;3.28;99.39;97018.91;4932898;28;20027;-67
2021/12/14 09:45:18;;;;;;;7.90;6.47;;;5.80;79.80;;;3.35;98.36;97017.47;4982277;28;20050;-67
2021/12/14 09:47:44;;;;;;;7.85;6.97;;;6.10;78.90;;;3.43;98.72;97027.28;4970592;28;20078;-69
2021/12/14 09:50:18;;;;;;;8.68;7.25;;;6.10;78.50;;;3.53;97.40;97027.38;4967695;28;20506;-65
2021/12/14 09:52:44;;;;;;;7.45;6.70;;;6.10;78.10;;;3.60;97.40;97029.34;4980773;28;20078;-68
2021/12/14 09:55:21;;;;;;;7.82;6.70;;;6.20;78.00;;;3.66;96.94;97010.66;4967449;28;20430;-69
2021/12/14 09:57:54;;;;;;;6.85;5.95;;;6.40;77.70;;;3.72;96.56;97006.72;4952362;28;20077;-67
2021/12/14 10:00:50;;;;;;;6.38;5.75;;;6.40;77.20;;;3.79;95.40;97007.03;4968601;28;20399;-68
2021/12/14 10:03:16;;;;;;;6.43;5.32;;;6.60;76.60;;;3.87;96.53;96997.69;4939107;28;20467;-70
2021/12/14 10:06:07;;;;;;;5.38;4.72;;;6.80;76.50;;;3.99;95.31;96988.03;4954142;28;20043;-69
2021/12/14 10:08:42;;;;;;;5.53;4.53;;;6.80;76.30;;;4.06;95.24;96988.34;4962748;28;20118;-68
2021/12/14 10:11:34;;;;;;;6.70;5.28;;;6.80;76.00;;;4.09;94.41;96999.34;4964101;28;20035;-69
2021/12/14 10:14:00;;;;;;;5.47;4.32;;;6.60;76.50;;;4.13;94.48;96998.13;4947935;28;20047;-69
2021/12/14 10:16:26;;;;;;;5.50;4.55;;;6.50;75.70;;;4.13;94.34;97005.94;4968952;28;20030;-67
2021/12/14 10:19:06;;;;;;;6.13;5.00;;;6.50;76.80;;;4.17;93.82;97003.91;4982696;28;20129;-69
2021/12/14 10:21:36;;;;;;;8.05;7.07;;;6.70;76.80;;;4.22;94.66;96999.97;4989343;28;20054;-67
2021/12/14 10:24:03;;;;;;;14.02;12.55;;;7.10;76.50;;;4.43;94.84;97001.75;4951995;28;20038;-68
2021/12/14 10:26:30;;;;;;;6.60;5.90;;;8.90;71.60;;;4.83;95.13;96997.41;4966680;28;20507;-67
2021/12/14 10:28:57;;;;;;;6.22;5.50;;;11.20;62.80;;;5.30;95.31;96991.66;4967658;28;20043;-69
2021/12/14 10:31:37;;;;;;;5.43;4.75;;;11.80;59.20;;;5.66;91.90;96998.00;4970044;28;20034;-69
2021/12/14 10:34:06;;;;;;;5.97;5.32;;;10.90;61.60;;;5.90;93.29;97002.88;4949061;28;20615;-68
2021/12/14 10:36:37;;;;;;;6.68;5.25;;;10.30;63.90;;;6.01;91.64;97003.56;4977576;28;20328;-69
2021/12/14 10:39:21;;;;;;;5.93;5.30;;;9.60;66.30;;;6.02;90.02;97002.59;4973156;28;20049;-69
2021/12/14 10:44:40;;;;;;;7.88;7.07;;;8.70;69.00;;;5.87;89.04;97001.31;4973294;28;20556;-68
2021/12/14 10:47:07;;;;;;;8.88;7.45;;;8.40;69.80;;;5.83;88.72;96992.13;4961355;28;20066;-69
2021/12/14 10:49:33;;;;;;;8.63;7.70;;;8.40;69.60;;;5.76;88.11;96991.03;4993956;28;20031;-68
2021/12/14 10:52:04;;;;;;;10.00;8.40;;;8.10;70.40;;;5.76;86.66;96988.41;4958195;28;20451;-70
2021/12/14 10:54:30;;;;;;;9.90;8.90;;;8.20;70.20;;;5.72;87.26;96990.47;4974241;28;20035;-69
2021/12/14 10:57:04;;;;;;;11.27;10.07;;;8.10;70.30;;;5.64;85.90;96997.31;4975624;28;20042;-70
2021/12/14 10:59:34;;;;;;;11.43;10.20;;;7.90;70.60;;;5.59;86.61;97004.75;4976351;28;20094;-69
2021/12/14 11:02:00;;;;;;;11.73;10.50;;;7.90;71.10;;;5.62;86.35;97009.69;4968575;28;20418;-68
2021/12/14 11:04:41;;;;;;;10.93;9.82;;;8.20;70.40;;;5.60;86.03;97009.81;4936332;28;20030;-68
2021/12/14 11:07:11;;;;;;;11.07;9.85;;;8.00;70.20;;;5.53;86.87;97006.94;4955045;28;20042;-68
2021/12/14 11:09:42;;;;;;;11.32;10.20;;;8.10;71.20;;;5.59;86.57;97004.75;4954789;28;20035;-67